sensor_id;sensor_type;location;lat;lon;timestamp;P1;durP1;ratioP1;P2;durP2;ratioP2
73113;SDS011;61301;51.956;5.876;2023-12-22T00:01:20;13.52;;;3.20;;
73113;SDS011;61301;51.956;5.876;2023-12-22T00:03:46;8.27;;;2.08;;
73113;SDS011;61301;51.956;5.876;2023-12-22T00:06:12;12.18;;;2.13;;
73113;SDS011;61301;51.956;5.876;2023-12-22T00:08:38;10.07;;;2.72;;
73113;SDS011;61301;51.956;5.876;2023-12-22T00:11:04;14.73;;;2.60;;
73113;SDS011;61301;51.956;5.876;2023-12-22T00:13:30;8.48;;;2.15;;
73113;SDS011;61301;51.956;5.876;2023-12-22T00:15:59;18.63;;;2.78;;
73113;SDS011;61301;51.956;5.876;2023-12-22T00:18:26;16.65;;;2.28;;
73113;SDS011;61301;51.956;5.876;2023-12-22T00:20:52;11.13;;;2.20;;
73113;SDS011;61301;51.956;5.876;2023-12-22T00:23:18;12.55;;;2.22;;
73113;SDS011;61301;51.956;5.876;2023-12-22T00:25:44;9.73;;;2.70;;
73113;SDS011;61301;51.956;5.876;2023-12-22T00:28:10;7.35;;;1.80;;
73113;SDS011;61301;51.956;5.876;2023-12-22T00:30:36;10.38;;;2.05;;
73113;SDS011;61301;51.956;5.876;2023-12-22T00:33:02;6.88;;;1.55;;
73113;SDS011;61301;51.956;5.876;2023-12-22T00:35:28;5.05;;;1.67;;
73113;SDS011;61301;51.956;5.876;2023-12-22T00:37:54;4.85;;;1.10;;
73113;SDS011;61301;51.956;5.876;2023-12-22T00:40:20;6.35;;;1.25;;
73113;SDS011;61301;51.956;5.876;2023-12-22T00:42:46;2.58;;;0.80;;
73113;SDS011;61301;51.956;5.876;2023-12-22T00:45:12;3.17;;;0.80;;
73113;SDS011;61301;51.956;5.876;2023-12-22T00:47:38;4.32;;;0.90;;
73113;SDS011;61301;51.956;5.876;2023-12-22T00:50:05;3.20;;;0.98;;
73113;SDS011;61301;51.956;5.876;2023-12-22T00:52:31;5.63;;;1.02;;
73113;SDS011;61301;51.956;5.876;2023-12-22T00:54:57;4.50;;;0.80;;
73113;SDS011;61301;51.956;5.876;2023-12-22T00:57:23;5.65;;;0.80;;
73113;SDS011;61301;51.956;5.876;2023-12-22T00:59:49;6.07;;;1.30;;
73113;SDS011;61301;51.956;5.876;2023-12-22T01:02:15;7.38;;;1.40;;
73113;SDS011;61301;51.956;5.876;2023-12-22T01:04:41;3.22;;;0.90;;
73113;SDS011;61301;51.956;5.876;2023-12-22T01:07:08;7.50;;;1.88;;
73113;SDS011;61301;51.956;5.876;2023-12-22T01:09:34;9.55;;;1.02;;
73113;SDS011;61301;51.956;5.876;2023-12-22T01:12:00;2.28;;;0.80;;
73113;SDS011;61301;51.956;5.876;2023-12-22T01:14:29;6.78;;;1.00;;
73113;SDS011;61301;51.956;5.876;2023-12-22T01:16:56;5.28;;;1.20;;
73113;SDS011;61301;51.956;5.876;2023-12-22T01:19:22;6.28;;;1.02;;
73113;SDS011;61301;51.956;5.876;2023-12-22T01:21:48;4.20;;;0.70;;
73113;SDS011;61301;51.956;5.876;2023-12-22T01:24:15;2.95;;;0.75;;
73113;SDS011;61301;51.956;5.876;2023-12-22T01:26:41;12.23;;;2.45;;
73113;SDS011;61301;51.956;5.876;2023-12-22T01:29:07;4.38;;;0.95;;
73113;SDS011;61301;51.956;5.876;2023-12-22T01:31:33;8.10;;;1.20;;
73113;SDS011;61301;51.956;5.876;2023-12-22T01:33:59;10.00;;;1.70;;
73113;SDS011;61301;51.956;5.876;2023-12-22T01:36:25;7.90;;;1.48;;
73113;SDS011;61301;51.956;5.876;2023-12-22T01:38:51;4.45;;;1.25;;
73113;SDS011;61301;51.956;5.876;2023-12-22T01:41:17;6.88;;;1.23;;
73113;SDS011;61301;51.956;5.876;2023-12-22T01:43:43;7.38;;;0.90;;
73113;SDS011;61301;51.956;5.876;2023-12-22T01:46:09;7.90;;;1.50;;
73113;SDS011;61301;51.956;5.876;2023-12-22T01:48:35;5.43;;;1.10;;
73113;SDS011;61301;51.956;5.876;2023-12-22T01:51:02;7.95;;;1.23;;
73113;SDS011;61301;51.956;5.876;2023-12-22T01:53:29;10.00;;;2.97;;
73113;SDS011;61301;51.956;5.876;2023-12-22T01:55:56;6.43;;;1.70;;
73113;SDS011;61301;51.956;5.876;2023-12-22T01:58:25;5.78;;;1.52;;
73113;SDS011;61301;51.956;5.876;2023-12-22T02:00:53;9.30;;;1.67;;
73113;SDS011;61301;51.956;5.876;2023-12-22T02:03:20;7.10;;;1.15;;
73113;SDS011;61301;51.956;5.876;2023-12-22T02:05:47;10.38;;;1.40;;
73113;SDS011;61301;51.956;5.876;2023-12-22T02:08:13;9.20;;;1.30;;
73113;SDS011;61301;51.956;5.876;2023-12-22T02:10:43;12.82;;;1.88;;
73113;SDS011;61301;51.956;5.876;2023-12-22T02:13:10;8.60;;;1.60;;
73113;SDS011;61301;51.956;5.876;2023-12-22T02:15:36;7.53;;;1.50;;
73113;SDS011;61301;51.956;5.876;2023-12-22T02:18:07;13.68;;;2.22;;
73113;SDS011;61301;51.956;5.876;2023-12-22T02:20:38;5.22;;;1.23;;
73113;SDS011;61301;51.956;5.876;2023-12-22T02:23:04;7.63;;;1.58;;
73113;SDS011;61301;51.956;5.876;2023-12-22T02:25:30;5.10;;;0.85;;
73113;SDS011;61301;51.956;5.876;2023-12-22T02:27:57;7.53;;;1.42;;
73113;SDS011;61301;51.956;5.876;2023-12-22T02:30:33;7.30;;;1.37;;
73113;SDS011;61301;51.956;5.876;2023-12-22T02:33:05;6.25;;;1.33;;
73113;SDS011;61301;51.956;5.876;2023-12-22T02:35:34;10.82;;;2.17;;
73113;SDS011;61301;51.956;5.876;2023-12-22T02:38:03;11.43;;;1.73;;
73113;SDS011;61301;51.956;5.876;2023-12-22T02:40:31;7.95;;;3.15;;
73113;SDS011;61301;51.956;5.876;2023-12-22T02:42:57;11.07;;;1.90;;
73113;SDS011;61301;51.956;5.876;2023-12-22T02:45:23;5.97;;;1.35;;
73113;SDS011;61301;51.956;5.876;2023-12-22T02:47:49;9.98;;;1.90;;
73113;SDS011;61301;51.956;5.876;2023-12-22T02:50:16;14.15;;;2.28;;
73113;SDS011;61301;51.956;5.876;2023-12-22T02:52:42;9.70;;;1.95;;
73113;SDS011;61301;51.956;5.876;2023-12-22T02:55:08;10.13;;;2.45;;
73113;SDS011;61301;51.956;5.876;2023-12-22T02:57:35;11.55;;;2.30;;
73113;SDS011;61301;51.956;5.876;2023-12-22T03:00:01;10.75;;;1.90;;
73113;SDS011;61301;51.956;5.876;2023-12-22T03:02:27;18.38;;;3.25;;
73113;SDS011;61301;51.956;5.876;2023-12-22T03:04:53;15.43;;;2.15;;
73113;SDS011;61301;51.956;5.876;2023-12-22T03:07:19;21.45;;;2.97;;
73113;SDS011;61301;51.956;5.876;2023-12-22T03:09:45;12.35;;;2.75;;
73113;SDS011;61301;51.956;5.876;2023-12-22T03:12:11;14.93;;;3.08;;
73113;SDS011;61301;51.956;5.876;2023-12-22T03:14:37;16.60;;;2.85;;
73113;SDS011;61301;51.956;5.876;2023-12-22T03:17:03;11.27;;;2.80;;
73113;SDS011;61301;51.956;5.876;2023-12-22T03:19:31;17.67;;;3.20;;
73113;SDS011;61301;51.956;5.876;2023-12-22T03:21:58;13.68;;;2.72;;
73113;SDS011;61301;51.956;5.876;2023-12-22T03:24:24;17.45;;;2.90;;
73113;SDS011;61301;51.956;5.876;2023-12-22T03:26:54;12.38;;;3.13;;
73113;SDS011;61301;51.956;5.876;2023-12-22T03:29:20;13.70;;;2.60;;
73113;SDS011;61301;51.956;5.876;2023-12-22T03:31:46;14.10;;;2.30;;
73113;SDS011;61301;51.956;5.876;2023-12-22T03:34:12;10.80;;;2.63;;
73113;SDS011;61301;51.956;5.876;2023-12-22T03:36:39;9.02;;;1.75;;
73113;SDS011;61301;51.956;5.876;2023-12-22T03:39:05;8.43;;;1.73;;
73113;SDS011;61301;51.956;5.876;2023-12-22T03:41:31;9.23;;;2.13;;
73113;SDS011;61301;51.956;5.876;2023-12-22T03:43:57;7.10;;;1.50;;
73113;SDS011;61301;51.956;5.876;2023-12-22T03:46:24;9.25;;;1.60;;
73113;SDS011;61301;51.956;5.876;2023-12-22T03:48:50;11.18;;;1.65;;
73113;SDS011;61301;51.956;5.876;2023-12-22T03:51:17;4.25;;;1.17;;
73113;SDS011;61301;51.956;5.876;2023-12-22T03:53:43;5.60;;;1.02;;
73113;SDS011;61301;51.956;5.876;2023-12-22T03:56:09;6.03;;;1.45;;
73113;SDS011;61301;51.956;5.876;2023-12-22T03:58:37;5.57;;;1.42;;
73113;SDS011;61301;51.956;5.876;2023-12-22T04:01:03;7.07;;;1.30;;
73113;SDS011;61301;51.956;5.876;2023-12-22T04:03:30;5.63;;;1.20;;
73113;SDS011;61301;51.956;5.876;2023-12-22T04:05:56;5.72;;;0.98;;
73113;SDS011;61301;51.956;5.876;2023-12-22T04:08:22;6.38;;;1.77;;
73113;SDS011;61301;51.956;5.876;2023-12-22T04:10:48;7.28;;;1.23;;
73113;SDS011;61301;51.956;5.876;2023-12-22T04:13:14;7.65;;;1.30;;
73113;SDS011;61301;51.956;5.876;2023-12-22T04:15:40;3.17;;;0.75;;
73113;SDS011;61301;51.956;5.876;2023-12-22T04:18:06;3.90;;;1.65;;
73113;SDS011;61301;51.956;5.876;2023-12-22T04:20:32;7.03;;;1.35;;
73113;SDS011;61301;51.956;5.876;2023-12-22T04:22:58;5.45;;;1.20;;
73113;SDS011;61301;51.956;5.876;2023-12-22T04:25:24;7.25;;;1.05;;
73113;SDS011;61301;51.956;5.876;2023-12-22T04:27:51;5.75;;;1.17;;
73113;SDS011;61301;51.956;5.876;2023-12-22T04:30:17;4.32;;;1.10;;
73113;SDS011;61301;51.956;5.876;2023-12-22T04:32:43;5.43;;;1.60;;
73113;SDS011;61301;51.956;5.876;2023-12-22T04:35:09;5.93;;;1.27;;
73113;SDS011;61301;51.956;5.876;2023-12-22T04:37:35;5.68;;;2.03;;
73113;SDS011;61301;51.956;5.876;2023-12-22T04:40:01;6.00;;;1.00;;
73113;SDS011;61301;51.956;5.876;2023-12-22T04:42:28;7.88;;;1.30;;
73113;SDS011;61301;51.956;5.876;2023-12-22T04:44:54;6.82;;;1.55;;
73113;SDS011;61301;51.956;5.876;2023-12-22T04:47:20;9.38;;;1.50;;
73113;SDS011;61301;51.956;5.876;2023-12-22T04:49:46;8.27;;;1.58;;
73113;SDS011;61301;51.956;5.876;2023-12-22T04:52:12;7.57;;;1.88;;
73113;SDS011;61301;51.956;5.876;2023-12-22T04:54:38;6.95;;;1.90;;
73113;SDS011;61301;51.956;5.876;2023-12-22T04:57:04;7.20;;;1.67;;
73113;SDS011;61301;51.956;5.876;2023-12-22T04:59:30;8.55;;;2.65;;
73113;SDS011;61301;51.956;5.876;2023-12-22T05:01:56;7.15;;;1.45;;
73113;SDS011;61301;51.956;5.876;2023-12-22T05:04:23;8.73;;;1.80;;
73113;SDS011;61301;51.956;5.876;2023-12-22T05:06:49;4.78;;;0.90;;
73113;SDS011;61301;51.956;5.876;2023-12-22T05:09:15;5.07;;;1.63;;
73113;SDS011;61301;51.956;5.876;2023-12-22T05:11:41;8.40;;;1.48;;
73113;SDS011;61301;51.956;5.876;2023-12-22T05:14:08;15.70;;;3.63;;
73113;SDS011;61301;51.956;5.876;2023-12-22T05:16:35;10.43;;;2.03;;
73113;SDS011;61301;51.956;5.876;2023-12-22T05:19:01;11.48;;;2.75;;
73113;SDS011;61301;51.956;5.876;2023-12-22T05:21:27;10.80;;;1.77;;
73113;SDS011;61301;51.956;5.876;2023-12-22T05:23:53;11.32;;;1.90;;
73113;SDS011;61301;51.956;5.876;2023-12-22T05:26:20;10.15;;;2.20;;
73113;SDS011;61301;51.956;5.876;2023-12-22T05:28:46;10.70;;;2.03;;
73113;SDS011;61301;51.956;5.876;2023-12-22T05:31:15;10.40;;;1.77;;
73113;SDS011;61301;51.956;5.876;2023-12-22T05:33:42;8.68;;;1.52;;
73113;SDS011;61301;51.956;5.876;2023-12-22T05:36:08;7.50;;;1.50;;
73113;SDS011;61301;51.956;5.876;2023-12-22T05:38:38;11.20;;;2.33;;
73113;SDS011;61301;51.956;5.876;2023-12-22T05:41:04;8.75;;;1.88;;
73113;SDS011;61301;51.956;5.876;2023-12-22T05:43:34;9.80;;;1.92;;
73113;SDS011;61301;51.956;5.876;2023-12-22T05:46:00;9.32;;;2.28;;
73113;SDS011;61301;51.956;5.876;2023-12-22T05:48:26;10.73;;;1.88;;
73113;SDS011;61301;51.956;5.876;2023-12-22T05:50:53;8.85;;;1.85;;
73113;SDS011;61301;51.956;5.876;2023-12-22T05:53:27;11.95;;;2.13;;
73113;SDS011;61301;51.956;5.876;2023-12-22T05:55:53;13.18;;;2.47;;
73113;SDS011;61301;51.956;5.876;2023-12-22T05:58:19;16.25;;;3.08;;
73113;SDS011;61301;51.956;5.876;2023-12-22T06:00:45;12.75;;;2.47;;
73113;SDS011;61301;51.956;5.876;2023-12-22T06:03:11;14.30;;;2.78;;
73113;SDS011;61301;51.956;5.876;2023-12-22T06:05:37;8.48;;;1.75;;
73113;SDS011;61301;51.956;5.876;2023-12-22T06:08:04;9.40;;;2.20;;
73113;SDS011;61301;51.956;5.876;2023-12-22T06:10:30;8.30;;;1.80;;
73113;SDS011;61301;51.956;5.876;2023-12-22T06:12:56;18.15;;;2.90;;
73113;SDS011;61301;51.956;5.876;2023-12-22T06:15:23;20.70;;;4.53;;
73113;SDS011;61301;51.956;5.876;2023-12-22T06:17:49;11.02;;;3.22;;
73113;SDS011;61301;51.956;5.876;2023-12-22T06:20:15;12.73;;;2.00;;
73113;SDS011;61301;51.956;5.876;2023-12-22T06:22:41;8.27;;;2.15;;
73113;SDS011;61301;51.956;5.876;2023-12-22T06:25:08;13.20;;;2.78;;
73113;SDS011;61301;51.956;5.876;2023-12-22T06:27:35;15.40;;;2.60;;
73113;SDS011;61301;51.956;5.876;2023-12-22T06:30:03;14.18;;;2.55;;
73113;SDS011;61301;51.956;5.876;2023-12-22T06:32:30;9.95;;;1.83;;
73113;SDS011;61301;51.956;5.876;2023-12-22T06:34:56;14.15;;;2.75;;
73113;SDS011;61301;51.956;5.876;2023-12-22T06:37:25;10.35;;;2.10;;
73113;SDS011;61301;51.956;5.876;2023-12-22T06:39:51;14.07;;;3.15;;
73113;SDS011;61301;51.956;5.876;2023-12-22T06:42:17;11.38;;;2.50;;
73113;SDS011;61301;51.956;5.876;2023-12-22T06:44:43;14.07;;;2.65;;
73113;SDS011;61301;51.956;5.876;2023-12-22T06:47:09;11.60;;;2.03;;
73113;SDS011;61301;51.956;5.876;2023-12-22T06:49:35;16.27;;;3.28;;
73113;SDS011;61301;51.956;5.876;2023-12-22T06:52:01;15.63;;;2.42;;
73113;SDS011;61301;51.956;5.876;2023-12-22T06:54:27;13.35;;;2.65;;
73113;SDS011;61301;51.956;5.876;2023-12-22T06:56:54;15.18;;;3.85;;
73113;SDS011;61301;51.956;5.876;2023-12-22T06:59:20;13.10;;;2.10;;
73113;SDS011;61301;51.956;5.876;2023-12-22T07:01:47;10.30;;;2.00;;
73113;SDS011;61301;51.956;5.876;2023-12-22T07:04:13;12.88;;;2.83;;
73113;SDS011;61301;51.956;5.876;2023-12-22T07:06:38;14.98;;;2.45;;
73113;SDS011;61301;51.956;5.876;2023-12-22T07:11:34;11.35;;;3.05;;
73113;SDS011;61301;51.956;5.876;2023-12-22T07:14:00;15.50;;;3.20;;
73113;SDS011;61301;51.956;5.876;2023-12-22T07:16:26;11.68;;;2.30;;
73113;SDS011;61301;51.956;5.876;2023-12-22T07:18:52;17.02;;;3.30;;
73113;SDS011;61301;51.956;5.876;2023-12-22T07:21:18;15.93;;;3.67;;
73113;SDS011;61301;51.956;5.876;2023-12-22T07:23:45;21.83;;;3.30;;
73113;SDS011;61301;51.956;5.876;2023-12-22T07:26:11;19.27;;;3.92;;
73113;SDS011;61301;51.956;5.876;2023-12-22T07:28:38;26.92;;;5.85;;
73113;SDS011;61301;51.956;5.876;2023-12-22T07:31:04;19.58;;;4.28;;
73113;SDS011;61301;51.956;5.876;2023-12-22T07:33:31;15.13;;;3.75;;
73113;SDS011;61301;51.956;5.876;2023-12-22T07:35:57;20.13;;;3.28;;
73113;SDS011;61301;51.956;5.876;2023-12-22T07:38:23;19.33;;;3.45;;
73113;SDS011;61301;51.956;5.876;2023-12-22T07:40:49;23.05;;;4.55;;
73113;SDS011;61301;51.956;5.876;2023-12-22T07:43:15;22.55;;;4.40;;
73113;SDS011;61301;51.956;5.876;2023-12-22T07:45:41;19.45;;;3.70;;
73113;SDS011;61301;51.956;5.876;2023-12-22T07:48:07;16.45;;;3.70;;
73113;SDS011;61301;51.956;5.876;2023-12-22T07:50:33;21.17;;;3.90;;
73113;SDS011;61301;51.956;5.876;2023-12-22T07:52:59;19.75;;;4.55;;
73113;SDS011;61301;51.956;5.876;2023-12-22T07:55:25;22.58;;;5.40;;
73113;SDS011;61301;51.956;5.876;2023-12-22T07:57:51;14.00;;;3.80;;
73113;SDS011;61301;51.956;5.876;2023-12-22T08:00:17;17.90;;;4.47;;
73113;SDS011;61301;51.956;5.876;2023-12-22T08:02:43;22.83;;;4.97;;
73113;SDS011;61301;51.956;5.876;2023-12-22T08:05:09;23.55;;;4.55;;
73113;SDS011;61301;51.956;5.876;2023-12-22T08:07:36;24.58;;;4.55;;
73113;SDS011;61301;51.956;5.876;2023-12-22T08:10:02;19.55;;;4.47;;
73113;SDS011;61301;51.956;5.876;2023-12-22T08:12:29;29.25;;;5.47;;
73113;SDS011;61301;51.956;5.876;2023-12-22T08:14:57;18.13;;;3.80;;
73113;SDS011;61301;51.956;5.876;2023-12-22T08:17:23;19.40;;;4.40;;
73113;SDS011;61301;51.956;5.876;2023-12-22T08:19:49;17.60;;;3.80;;
73113;SDS011;61301;51.956;5.876;2023-12-22T08:22:15;17.58;;;3.20;;
73113;SDS011;61301;51.956;5.876;2023-12-22T08:24:41;10.75;;;2.20;;
73113;SDS011;61301;51.956;5.876;2023-12-22T08:27:08;23.48;;;4.50;;
73113;SDS011;61301;51.956;5.876;2023-12-22T08:29:34;16.92;;;3.88;;
73113;SDS011;61301;51.956;5.876;2023-12-22T08:32:00;13.23;;;3.15;;
73113;SDS011;61301;51.956;5.876;2023-12-22T08:34:27;16.58;;;3.15;;
73113;SDS011;61301;51.956;5.876;2023-12-22T08:36:53;11.73;;;3.40;;
73113;SDS011;61301;51.956;5.876;2023-12-22T08:39:19;15.50;;;3.03;;
73113;SDS011;61301;51.956;5.876;2023-12-22T08:41:46;24.20;;;4.30;;
73113;SDS011;61301;51.956;5.876;2023-12-22T08:44:13;22.10;;;4.85;;
73113;SDS011;61301;51.956;5.876;2023-12-22T08:46:41;17.33;;;4.10;;
73113;SDS011;61301;51.956;5.876;2023-12-22T08:49:07;17.13;;;3.65;;
73113;SDS011;61301;51.956;5.876;2023-12-22T08:51:33;15.90;;;4.20;;
73113;SDS011;61301;51.956;5.876;2023-12-22T08:53:59;19.92;;;3.83;;
73113;SDS011;61301;51.956;5.876;2023-12-22T08:56:25;23.25;;;4.78;;
73113;SDS011;61301;51.956;5.876;2023-12-22T08:58:52;18.10;;;3.88;;
73113;SDS011;61301;51.956;5.876;2023-12-22T09:01:20;17.73;;;4.32;;
73113;SDS011;61301;51.956;5.876;2023-12-22T09:03:47;20.02;;;3.85;;
73113;SDS011;61301;51.956;5.876;2023-12-22T09:06:14;11.88;;;2.92;;
73113;SDS011;61301;51.956;5.876;2023-12-22T09:08:41;26.27;;;4.22;;
73113;SDS011;61301;51.956;5.876;2023-12-22T09:11:08;19.73;;;3.97;;
73113;SDS011;61301;51.956;5.876;2023-12-22T09:13:34;18.48;;;3.88;;
73113;SDS011;61301;51.956;5.876;2023-12-22T09:16:01;12.68;;;2.80;;
73113;SDS011;61301;51.956;5.876;2023-12-22T09:18:28;11.10;;;3.55;;
73113;SDS011;61301;51.956;5.876;2023-12-22T09:20:54;14.43;;;3.25;;
73113;SDS011;61301;51.956;5.876;2023-12-22T09:23:20;11.52;;;2.22;;
73113;SDS011;61301;51.956;5.876;2023-12-22T09:25:47;11.70;;;2.58;;
73113;SDS011;61301;51.956;5.876;2023-12-22T09:28:14;11.40;;;2.13;;
73113;SDS011;61301;51.956;5.876;2023-12-22T09:30:40;11.38;;;2.42;;
73113;SDS011;61301;51.956;5.876;2023-12-22T09:33:06;14.75;;;3.55;;
73113;SDS011;61301;51.956;5.876;2023-12-22T09:35:32;12.38;;;2.20;;
73113;SDS011;61301;51.956;5.876;2023-12-22T09:37:57;9.85;;;2.42;;
73113;SDS011;61301;51.956;5.876;2023-12-22T09:40:24;11.63;;;2.67;;
73113;SDS011;61301;51.956;5.876;2023-12-22T09:42:50;10.35;;;3.03;;
73113;SDS011;61301;51.956;5.876;2023-12-22T09:45:20;11.57;;;2.40;;
73113;SDS011;61301;51.956;5.876;2023-12-22T09:47:47;10.00;;;2.05;;
73113;SDS011;61301;51.956;5.876;2023-12-22T09:50:14;9.05;;;1.17;;
73113;SDS011;61301;51.956;5.876;2023-12-22T09:52:44;3.75;;;0.70;;
73113;SDS011;61301;51.956;5.876;2023-12-22T09:55:11;4.15;;;0.65;;
73113;SDS011;61301;51.956;5.876;2023-12-22T09:57:38;1.98;;;0.50;;
73113;SDS011;61301;51.956;5.876;2023-12-22T10:00:07;3.03;;;0.75;;
73113;SDS011;61301;51.956;5.876;2023-12-22T10:02:36;4.13;;;0.68;;
73113;SDS011;61301;51.956;5.876;2023-12-22T10:05:02;1.13;;;0.40;;
73113;SDS011;61301;51.956;5.876;2023-12-22T10:07:30;2.22;;;0.95;;
73113;SDS011;61301;51.956;5.876;2023-12-22T10:09:56;2.00;;;0.70;;
73113;SDS011;61301;51.956;5.876;2023-12-22T10:12:23;1.45;;;0.50;;
73113;SDS011;61301;51.956;5.876;2023-12-22T10:14:51;3.92;;;1.00;;
73113;SDS011;61301;51.956;5.876;2023-12-22T10:17:19;2.60;;;0.47;;
73113;SDS011;61301;51.956;5.876;2023-12-22T10:19:45;3.40;;;0.90;;
73113;SDS011;61301;51.956;5.876;2023-12-22T10:22:11;2.20;;;0.77;;
73113;SDS011;61301;51.956;5.876;2023-12-22T10:24:43;5.18;;;0.73;;
73113;SDS011;61301;51.956;5.876;2023-12-22T10:27:14;7.72;;;1.27;;
73113;SDS011;61301;51.956;5.876;2023-12-22T10:29:53;5.22;;;1.30;;
73113;SDS011;61301;51.956;5.876;2023-12-22T10:32:22;8.15;;;1.25;;
73113;SDS011;61301;51.956;5.876;2023-12-22T10:34:50;4.75;;;1.20;;
73113;SDS011;61301;51.956;5.876;2023-12-22T10:37:17;7.82;;;2.22;;
73113;SDS011;61301;51.956;5.876;2023-12-22T10:39:43;9.98;;;2.75;;
73113;SDS011;61301;51.956;5.876;2023-12-22T10:42:13;9.82;;;2.90;;
73113;SDS011;61301;51.956;5.876;2023-12-22T10:44:40;5.38;;;1.20;;
73113;SDS011;61301;51.956;5.876;2023-12-22T10:47:07;5.15;;;1.38;;
73113;SDS011;61301;51.956;5.876;2023-12-22T10:49:33;5.20;;;1.65;;
73113;SDS011;61301;51.956;5.876;2023-12-22T10:51:59;7.57;;;1.50;;
73113;SDS011;61301;51.956;5.876;2023-12-22T10:54:25;5.93;;;1.42;;
73113;SDS011;61301;51.956;5.876;2023-12-22T10:56:54;6.50;;;1.92;;
73113;SDS011;61301;51.956;5.876;2023-12-22T10:59:25;4.53;;;1.00;;
73113;SDS011;61301;51.956;5.876;2023-12-22T11:01:54;7.55;;;1.55;;
73113;SDS011;61301;51.956;5.876;2023-12-22T11:04:23;6.18;;;1.85;;
73113;SDS011;61301;51.956;5.876;2023-12-22T11:06:54;6.95;;;1.15;;
73113;SDS011;61301;51.956;5.876;2023-12-22T11:09:23;8.32;;;1.40;;
73113;SDS011;61301;51.956;5.876;2023-12-22T11:11:50;3.50;;;1.05;;
73113;SDS011;61301;51.956;5.876;2023-12-22T11:14:16;5.32;;;1.05;;
73113;SDS011;61301;51.956;5.876;2023-12-22T11:16:43;9.18;;;1.50;;
73113;SDS011;61301;51.956;5.876;2023-12-22T11:19:14;6.47;;;1.70;;
73113;SDS011;61301;51.956;5.876;2023-12-22T11:21:41;5.25;;;1.52;;
73113;SDS011;61301;51.956;5.876;2023-12-22T11:24:08;7.00;;;1.30;;
73113;SDS011;61301;51.956;5.876;2023-12-22T11:26:38;4.90;;;1.52;;
73113;SDS011;61301;51.956;5.876;2023-12-22T11:29:06;5.72;;;1.30;;
73113;SDS011;61301;51.956;5.876;2023-12-22T11:31:33;5.28;;;0.98;;
73113;SDS011;61301;51.956;5.876;2023-12-22T11:34:00;4.70;;;1.27;;
73113;SDS011;61301;51.956;5.876;2023-12-22T11:36:27;5.90;;;1.20;;
73113;SDS011;61301;51.956;5.876;2023-12-22T11:38:56;7.68;;;1.58;;
73113;SDS011;61301;51.956;5.876;2023-12-22T11:41:25;5.70;;;1.33;;
73113;SDS011;61301;51.956;5.876;2023-12-22T11:43:54;4.85;;;1.30;;
73113;SDS011;61301;51.956;5.876;2023-12-22T11:46:22;6.05;;;1.45;;
73113;SDS011;61301;51.956;5.876;2023-12-22T11:48:51;6.18;;;1.17;;
73113;SDS011;61301;51.956;5.876;2023-12-22T11:51:18;8.50;;;1.95;;
73113;SDS011;61301;51.956;5.876;2023-12-22T11:53:45;6.47;;;1.48;;
73113;SDS011;61301;51.956;5.876;2023-12-22T11:56:11;4.88;;;1.00;;
73113;SDS011;61301;51.956;5.876;2023-12-22T11:58:45;7.47;;;1.17;;
73113;SDS011;61301;51.956;5.876;2023-12-22T12:01:21;5.47;;;1.33;;
73113;SDS011;61301;51.956;5.876;2023-12-22T12:03:52;6.53;;;1.10;;
73113;SDS011;61301;51.956;5.876;2023-12-22T12:08:52;4.35;;;0.88;;
73113;SDS011;61301;51.956;5.876;2023-12-22T12:11:21;8.35;;;1.55;;
73113;SDS011;61301;51.956;5.876;2023-12-22T12:14:07;4.28;;;1.23;;
73113;SDS011;61301;51.956;5.876;2023-12-22T12:16:37;5.88;;;1.38;;
73113;SDS011;61301;51.956;5.876;2023-12-22T12:19:07;7.38;;;1.20;;
73113;SDS011;61301;51.956;5.876;2023-12-22T12:21:34;3.33;;;1.10;;
73113;SDS011;61301;51.956;5.876;2023-12-22T12:24:00;4.35;;;1.00;;
73113;SDS011;61301;51.956;5.876;2023-12-22T12:26:29;6.53;;;1.50;;
73113;SDS011;61301;51.956;5.876;2023-12-22T12:28:55;4.65;;;1.40;;
73113;SDS011;61301;51.956;5.876;2023-12-22T12:31:26;5.38;;;1.40;;
73113;SDS011;61301;51.956;5.876;2023-12-22T12:34:03;5.57;;;1.35;;
73113;SDS011;61301;51.956;5.876;2023-12-22T12:36:31;6.05;;;1.13;;
73113;SDS011;61301;51.956;5.876;2023-12-22T12:39:07;10.40;;;1.92;;
73113;SDS011;61301;51.956;5.876;2023-12-22T12:41:36;7.57;;;1.30;;
73113;SDS011;61301;51.956;5.876;2023-12-22T12:44:06;6.45;;;1.35;;
73113;SDS011;61301;51.956;5.876;2023-12-22T12:46:36;5.45;;;1.30;;
73113;SDS011;61301;51.956;5.876;2023-12-22T12:49:10;8.63;;;1.33;;
73113;SDS011;61301;51.956;5.876;2023-12-22T12:51:37;8.40;;;1.60;;
73113;SDS011;61301;51.956;5.876;2023-12-22T12:54:07;8.52;;;1.85;;
73113;SDS011;61301;51.956;5.876;2023-12-22T12:56:46;10.93;;;1.98;;
73113;SDS011;61301;51.956;5.876;2023-12-22T12:59:13;5.55;;;1.33;;
73113;SDS011;61301;51.956;5.876;2023-12-22T13:01:42;5.22;;;1.45;;
73113;SDS011;61301;51.956;5.876;2023-12-22T13:04:09;5.90;;;1.40;;
73113;SDS011;61301;51.956;5.876;2023-12-22T13:06:42;6.05;;;1.73;;
73113;SDS011;61301;51.956;5.876;2023-12-22T13:09:11;5.32;;;0.93;;
73113;SDS011;61301;51.956;5.876;2023-12-22T13:11:41;5.90;;;1.00;;
73113;SDS011;61301;51.956;5.876;2023-12-22T13:14:08;6.47;;;1.17;;
73113;SDS011;61301;51.956;5.876;2023-12-22T13:16:35;6.10;;;1.48;;
73113;SDS011;61301;51.956;5.876;2023-12-22T13:19:02;7.53;;;1.55;;
73113;SDS011;61301;51.956;5.876;2023-12-22T13:21:28;10.80;;;1.40;;
73113;SDS011;61301;51.956;5.876;2023-12-22T13:24:11;7.93;;;1.20;;
73113;SDS011;61301;51.956;5.876;2023-12-22T13:26:38;7.72;;;1.77;;
73113;SDS011;61301;51.956;5.876;2023-12-22T13:29:05;7.03;;;1.48;;
73113;SDS011;61301;51.956;5.876;2023-12-22T13:31:31;8.90;;;2.40;;
73113;SDS011;61301;51.956;5.876;2023-12-22T13:33:59;8.27;;;1.20;;
73113;SDS011;61301;51.956;5.876;2023-12-22T13:36:25;12.75;;;2.30;;
73113;SDS011;61301;51.956;5.876;2023-12-22T13:38:51;7.30;;;1.27;;
73113;SDS011;61301;51.956;5.876;2023-12-22T13:41:17;5.90;;;1.52;;
73113;SDS011;61301;51.956;5.876;2023-12-22T13:43:44;7.07;;;2.20;;
73113;SDS011;61301;51.956;5.876;2023-12-22T13:46:12;11.40;;;1.98;;
73113;SDS011;61301;51.956;5.876;2023-12-22T13:48:40;5.82;;;1.02;;
73113;SDS011;61301;51.956;5.876;2023-12-22T13:51:06;6.30;;;1.50;;
73113;SDS011;61301;51.956;5.876;2023-12-22T13:53:32;7.38;;;1.80;;
73113;SDS011;61301;51.956;5.876;2023-12-22T13:55:58;6.28;;;1.63;;
73113;SDS011;61301;51.956;5.876;2023-12-22T13:58:25;6.22;;;1.52;;
73113;SDS011;61301;51.956;5.876;2023-12-22T14:00:53;4.97;;;1.42;;
73113;SDS011;61301;51.956;5.876;2023-12-22T14:03:19;5.30;;;1.38;;
73113;SDS011;61301;51.956;5.876;2023-12-22T14:05:48;7.28;;;1.42;;
73113;SDS011;61301;51.956;5.876;2023-12-22T14:08:18;5.88;;;1.55;;
73113;SDS011;61301;51.956;5.876;2023-12-22T14:10:47;9.68;;;2.75;;
73113;SDS011;61301;51.956;5.876;2023-12-22T14:13:14;5.32;;;0.98;;
73113;SDS011;61301;51.956;5.876;2023-12-22T14:15:43;5.00;;;1.02;;
73113;SDS011;61301;51.956;5.876;2023-12-22T14:18:10;6.60;;;1.27;;
73113;SDS011;61301;51.956;5.876;2023-12-22T14:20:36;9.65;;;1.48;;
73113;SDS011;61301;51.956;5.876;2023-12-22T14:23:02;13.65;;;2.00;;
73113;SDS011;61301;51.956;5.876;2023-12-22T14:25:29;5.95;;;1.77;;
73113;SDS011;61301;51.956;5.876;2023-12-22T14:27:57;6.82;;;1.30;;
73113;SDS011;61301;51.956;5.876;2023-12-22T14:30:24;11.55;;;2.22;;
73113;SDS011;61301;51.956;5.876;2023-12-22T14:32:50;8.95;;;1.60;;
73113;SDS011;61301;51.956;5.876;2023-12-22T14:35:16;8.25;;;1.83;;
73113;SDS011;61301;51.956;5.876;2023-12-22T14:37:42;5.63;;;1.67;;
73113;SDS011;61301;51.956;5.876;2023-12-22T14:40:08;9.32;;;2.10;;
73113;SDS011;61301;51.956;5.876;2023-12-22T14:42:35;6.07;;;1.92;;
73113;SDS011;61301;51.956;5.876;2023-12-22T14:45:01;8.98;;;1.73;;
73113;SDS011;61301;51.956;5.876;2023-12-22T14:47:27;9.50;;;2.42;;